Time;durP1;ratioP1;P1;durP2;ratioP2;P2;SDS_P1;SDS_P2;PMS_P1;PMS_P2;Temp;Humidity;BMP_temperature;BMP_pressure;BME280_temperature;BME280_humidity;BME280_pressure;Samples;Min_cycle;Max_cycle;Signal;HPM_P1;HPM_P2
2024/04/22 00:00:03;;;;;;;8.15;5.65;;;;;;;2.31;74.92;98727.66;5206153;27;20000;-72
2024/04/22 00:02:33;;;;;;;6.40;5.80;;;;;;;2.29;74.97;98734.97;5213738;27;20015;-72
2024/04/22 00:04:59;;;;;;;5.93;5.20;;;;;;;2.21;75.20;98721.78;5212692;27;20217;-72
2024/04/22 00:07:24;;;;;;;6.18;5.68;;;;;;;2.18;75.22;98727.44;5210368;27;20007;-72
2024/04/22 00:09:49;;;;;;;6.00;5.40;;;;;;;2.14;75.96;98725.31;5204768;27;20004;-73
2024/04/22 00:12:15;;;;;;;5.80;5.30;;;;;;;2.09;75.41;98726.69;5198385;27;20011;-73
2024/04/22 00:14:40;;;;;;;6.22;5.63;;;;;;;2.03;75.95;98723.91;5213121;27;19995;-72
2024/04/22 00:17:06;;;;;;;6.10;5.40;;;;;;;2.12;75.89;98738.78;5191127;27;20010;-72
2024/04/22 00:19:31;;;;;;;5.85;5.35;;;;;;;1.98;76.28;98715.66;5183172;27;20452;-72
2024/04/22 00:21:56;;;;;;;7.32;5.95;;;;;;;2.07;75.59;98730.50;5220957;27;20081;-72
2024/04/22 00:24:22;;;;;;;7.13;6.10;;;;;;;1.99;75.69;98717.28;5209332;27;20467;-73
2024/04/22 00:26:47;;;;;;;7.13;6.43;;;;;;;1.98;75.67;98715.66;5219656;27;20124;-72
2024/04/22 00:29:12;;;;;;;7.05;5.80;;;;;;;1.96;76.06;98726.44;5223331;27;20344;-73
2024/04/22 00:31:39;;;;;;;5.97;5.47;;;;;;;1.82;75.90;98702.50;5223760;27;19999;-73
2024/04/22 00:34:04;;;;;;;7.53;6.00;;;;;;;1.84;76.36;98719.06;5205491;27;20126;-72
2024/04/22 00:36:30;;;;;;;6.90;6.20;;;;;;;1.86;76.14;98715.22;5223619;27;20007;-73
2024/04/22 00:38:55;;;;;;;6.38;5.75;;;;;;;1.83;76.59;98712.91;5228505;27;20018;-73
2024/04/22 00:41:25;;;;;;;7.57;5.72;;;;;;;1.86;76.13;98725.84;5195804;27;20008;-73
2024/04/22 00:43:50;;;;;;;7.68;5.53;;;;;;;1.83;76.27;98717.41;5222798;27;20011;-73
2024/04/22 00:46:15;;;;;;;5.55;4.95;;;;;;;1.81;76.38;98703.47;5222475;27;20003;-73
2024/04/22 00:48:41;;;;;;;6.45;5.85;;;;;;;1.76;76.33;98705.84;5211816;27;20000;-73
2024/04/22 00:51:07;;;;;;;8.68;5.90;;;;;;;1.81;76.31;98708.78;5225780;27;20668;-72
2024/04/22 00:53:32;;;;;;;6.82;6.13;;;;;;;1.88;76.11;98715.03;5166465;27;20012;-72
2024/04/22 00:55:58;;;;;;;6.32;5.72;;;;;;;1.76;76.42;98696.03;5174963;27;20003;-73
2024/04/22 00:58:24;;;;;;;10.23;6.15;;;;;;;1.87;76.33;98714.22;5205680;27;20015;-72
2024/04/22 01:00:50;;;;;;;7.70;5.78;;;;;;;1.80;76.17;98702.66;5202833;27;20081;-72
2024/04/22 01:03:15;;;;;;;6.10;5.50;;;;;;;1.77;76.49;98703.03;5205071;27;20014;-72
2024/04/22 01:05:41;;;;;;;6.32;5.60;;;;;;;1.81;76.46;98712.28;5196245;27;20011;-72
2024/04/22 01:08:07;;;;;;;7.85;6.45;;;;;;;1.78;76.33;98714.44;5210738;27;20001;-72
2024/04/22 01:10:32;;;;;;;6.72;6.05;;;;;;;1.70;77.00;98710.03;5207612;27;20017;-71
2024/04/22 01:12:58;;;;;;;7.63;6.13;;;;;;;1.73;76.64;98707.00;5205069;27;20076;-71
2024/04/22 01:15:23;;;;;;;7.43;5.68;;;;;;;1.63;76.63;98695.81;5181295;27;19996;-71
2024/04/22 01:17:48;;;;;;;7.18;6.45;;;;;;;1.65;76.40;98703.59;5199862;27;20446;-72
2024/04/22 01:20:14;;;;;;;7.22;6.15;;;;;;;1.63;76.76;98705.59;5208973;27;20004;-72
2024/04/22 01:22:40;;;;;;;6.10;5.50;;;;;;;1.71;76.63;98714.31;5230424;27;20095;-73
2024/04/22 01:25:06;;;;;;;6.50;5.75;;;;;;;1.77;76.55;98718.13;5173784;27;20452;-73
2024/04/22 01:27:32;;;;;;;6.70;6.07;;;;;;;1.75;76.43;98709.50;5186733;27;20003;-72
2024/04/22 01:29:58;;;;;;;6.68;5.90;;;;;;;1.58;76.68;98697.31;5173472;27;20039;-73
2024/04/22 01:32:24;;;;;;;6.38;5.80;;;;;;;1.61;76.77;98700.44;5236723;27;20004;-73
2024/04/22 01:34:50;;;;;;;6.57;5.97;;;;;;;1.54;77.00;98680.09;5165762;27;20074;-73
2024/04/22 01:37:15;;;;;;;7.10;5.95;;;;;;;1.64;76.34;98704.56;5195767;27;20000;-73
2024/04/22 01:39:41;;;;;;;7.70;6.85;;;;;;;1.65;76.84;98701.78;5223057;27;20736;-73
2024/04/22 01:42:08;;;;;;;7.22;6.20;;;;;;;1.63;76.46;98700.28;5207884;27;20015;-73
2024/04/22 01:44:33;;;;;;;6.35;5.70;;;;;;;1.61;76.45;98702.28;5235824;27;20065;-72
2024/04/22 01:46:59;;;;;;;6.05;5.45;;;;;;;1.58;76.20;98708.78;5227335;27;20086;-72
2024/04/22 01:49:24;;;;;;;8.63;6.28;;;;;;;1.57;76.01;98706.28;5199379;27;20000;-73
2024/04/22 01:51:50;;;;;;;6.78;5.88;;;;;;;1.62;76.35;98722.50;5249218;27;20003;-73
2024/04/22 01:54:15;;;;;;;6.50;5.72;;;;;;;1.56;76.36;98720.56;5187693;27;20018;-73
2024/04/22 01:56:40;;;;;;;9.00;6.50;;;;;;;1.45;76.52;98702.41;5199752;27;20372;-74
2024/04/22 01:59:06;;;;;;;8.27;6.97;;;;;;;1.51;76.50;98717.59;5203739;27;19999;-73
2024/04/22 02:01:31;;;;;;;6.57;5.97;;;;;;;1.42;76.82;98709.69;5254667;27;20002;-73
2024/04/22 02:03:56;;;;;;;6.78;6.10;;;;;;;1.44;76.85;98706.03;5213530;27;20445;-72
2024/04/22 02:06:22;;;;;;;7.10;6.40;;;;;;;1.45;77.24;98711.16;5221385;27;20011;-73
2024/04/22 02:08:47;;;;;;;7.95;7.05;;;;;;;1.40;77.02;98701.06;5200655;27;20352;-72
2024/04/22 02:11:12;;;;;;;7.18;6.40;;;;;;;1.28;76.95;98685.72;5186740;27;20016;-72
2024/04/22 02:13:38;;;;;;;6.85;6.10;;;;;;;1.39;76.79;98709.22;5230181;27;20478;-74
2024/04/22 02:16:03;;;;;;;7.40;6.70;;;;;;;1.42;77.36;98720.28;5229050;27;20012;-73
2024/04/22 02:18:30;;;;;;;6.07;5.40;;;;;;;1.20;76.86;98688.41;5196239;27;20076;-73
2024/04/22 02:20:55;;;;;;;7.03;5.97;;;;;;;1.40;77.35;98727.59;5228453;27;20421;-73
2024/04/22 02:23:21;;;;;;;6.68;6.07;;;;;;;1.33;77.16;98715.22;5236391;27;20010;-72
2024/04/22 02:25:46;;;;;;;6.85;6.15;;;;;;;1.27;77.13;98706.13;5239396;27;20069;-72
2024/04/22 02:28:12;;;;;;;6.60;5.95;;;;;;;1.37;77.18;98720.00;5260445;27;19999;-71
2024/04/22 02:30:38;;;;;;;7.00;6.22;;;;;;;1.35;77.29;98721.19;5202972;27;20004;-71
2024/04/22 02:33:07;;;;;;;6.80;6.10;;;;;;;1.08;76.94;98685.31;5200443;27;20006;-71
2024/04/22 02:35:33;;;;;;;8.05;7.25;;;;;;;1.29;77.13;98725.34;5192748;27;20466;-73
2024/04/22 02:37:58;;;;;;;7.82;6.38;;;;;;;1.26;76.65;98720.38;5247721;27;20456;-74
2024/04/22 02:40:25;;;;;;;7.30;6.60;;;;;;;1.16;77.33;98706.50;5251330;27;19999;-72
2024/04/22 02:42:50;;;;;;;8.20;7.28;;;;;;;1.21;76.70;98712.09;5203349;27;20024;-72
2024/04/22 02:45:16;;;;;;;8.45;7.55;;;;;;;1.08;76.98;98695.91;5255347;27;20104;-72
2024/04/22 02:47:41;;;;;;;7.47;6.85;;;;;;;1.21;77.06;98717.41;5188905;27;20079;-72
2024/04/22 02:50:06;;;;;;;7.60;6.90;;;;;;;1.09;77.37;98702.91;5169873;27;20088;-72
2024/04/22 02:52:32;;;;;;;7.93;6.93;;;;;;;1.02;77.64;98704.56;5236371;27;20008;-72
2024/04/22 02:54:57;;;;;;;10.15;7.75;;;;;;;1.02;77.72;98704.56;5171029;27;20004;-71
2024/04/22 02:57:22;;;;;;;9.93;7.25;;;;;;;1.01;78.07;98705.56;5183247;27;20014;-71
2024/04/22 02:59:48;;;;;;;9.32;6.95;;;;;;;0.94;77.78;98699.28;5204794;27;20011;-72
2024/04/22 03:02:13;;;;;;;7.53;6.82;;;;;;;1.02;78.49;98696.63;5206151;27;20003;-72
2024/04/22 03:04:39;;;;;;;7.97;7.10;;;;;;;0.74;78.17;98644.19;5173087;21;20048;-73
2024/04/22 03:07:05;;;;;;;7.40;6.43;;;;;;;0.93;78.14;98676.44;5203596;27;20023;-76
2024/04/22 03:09:34;;;;;;;7.20;6.50;;;;;;;1.02;78.67;98685.19;5239843;27;20017;-75
2024/04/22 03:12:00;;;;;;;7.20;6.50;;;;;;;1.03;78.16;98677.03;5211065;27;20018;-76
2024/04/22 03:14:25;;;;;;;8.77;7.35;;;;;;;1.05;78.43;98693.59;5211268;27;20463;-75
2024/04/22 03:16:51;;;;;;;8.18;6.80;;;;;;;1.01;78.17;98689.66;5258079;27;20002;-76
2024/04/22 03:19:16;;;;;;;8.02;7.22;;;;;;;0.92;78.12;98682.72;5264027;26;20015;-73
2024/04/22 03:21:42;;;;;;;7.90;7.13;;;;;;;0.90;78.31;98682.06;5287957;26;19998;-73
2024/04/22 03:24:07;;;;;;;7.18;6.47;;;;;;;1.04;77.76;98710.53;5253870;26;20081;-76
2024/04/22 03:26:32;;;;;;;6.65;6.05;;;;;;;0.98;77.99;98719.16;5245006;27;20003;-76
2024/04/22 03:28:58;;;;;;;10.35;7.35;;;;;;;0.86;78.64;98691.38;5245289;27;20007;-76
2024/04/22 03:31:24;;;;;;;9.80;7.38;;;;;;;0.85;78.36;98679.09;5245213;27;20018;-76
2024/04/22 03:33:49;;;;;;;7.50;6.80;;;;;;;0.96;78.17;98702.59;5242059;27;20003;-76
2024/04/22 03:36:15;;;;;;;8.60;7.70;;;;;;;0.97;78.76;98706.91;5211101;27;20018;-76
2024/04/22 03:38:40;;;;;;;9.10;8.20;;;;;;;0.94;78.51;98701.09;5243037;27;20017;-75
2024/04/22 03:41:05;;;;;;;8.25;7.38;;;;;;;0.87;78.32;98706.28;5238935;27;20017;-77
2024/04/22 03:43:31;;;;;;;9.65;8.50;;;;;;;0.81;78.81;98693.72;5242551;27;20015;-76
2024/04/22 03:51:24;;;;;;;9.15;8.07;;;;;;;0.92;78.61;98706.59;5244528;27;20003;-74
2024/04/22 03:53:49;;;;;;;9.60;8.70;;;;;;;0.89;78.91;98701.63;5215087;27;20017;-74
2024/04/22 03:56:15;;;;;;;9.38;8.48;;;;;;;0.88;78.59;98702.63;5209984;27;20026;-74
2024/04/22 03:58:40;;;;;;;9.80;7.78;;;;;;;0.76;78.66;98688.09;5242620;27;20003;-75
2024/04/22 04:01:05;;;;;;;8.55;7.75;;;;;;;0.90;78.65;98713.06;5215295;27;20007;-75
2024/04/22 04:03:31;;;;;;;9.18;8.27;;;;;;;0.83;78.81;98699.66;5214791;27;20014;-75
2024/04/22 04:05:56;;;;;;;8.52;7.72;;;;;;;0.64;78.67;98670.91;5225586;27;20003;-75
2024/04/22 04:08:22;;;;;;;8.55;7.75;;;;;;;0.78;79.10;98699.34;5242596;27;20354;-76
2024/04/22 04:10:47;;;;;;;10.02;9.10;;;;;;;0.85;78.98;98705.63;5183115;27;20015;-75
2024/04/22 04:13:12;;;;;;;10.50;9.35;;;;;;;0.87;79.31;98708.91;5209109;27;20004;-75
2024/04/22 04:15:38;;;;;;;10.35;9.35;;;;;;;0.76;79.09;98693.38;5231900;27;20032;-75
2024/04/22 04:18:03;;;;;;;9.80;8.90;;;;;;;0.84;78.96;98709.25;5242953;27;20470;-75
2024/04/22 04:20:29;;;;;;;11.20;10.20;;;;;;;0.84;78.77;98698.66;5242719;27;20003;-75
2024/04/22 04:22:54;;;;;;;9.75;8.85;;;;;;;0.76;78.46;98680.13;5214524;27;20455;-75
2024/04/22 04:25:20;;;;;;;11.75;10.38;;;;;;;0.59;78.28;98666.09;5219566;27;20010;-75
2024/04/22 04:27:45;;;;;;;10.80;9.80;;;;;;;0.71;78.07;98687.78;5215030;27;20003;-73
2024/04/22 04:30:10;;;;;;;10.20;9.20;;;;;;;0.70;78.26;98694.88;5254547;27;20002;-74
2024/04/22 04:32:36;;;;;;;10.30;9.35;;;;;;;0.70;78.53;98712.63;5227811;27;20014;-75
2024/04/22 04:35:01;;;;;;;11.70;10.02;;;;;;;0.59;78.15;98705.03;5214103;27;20014;-74
2024/04/22 04:37:28;;;;;;;11.98;10.77;;;;;;;0.69;78.71;98700.38;5239208;27;20015;-75
2024/04/22 04:39:53;;;;;;;10.35;9.35;;;;;;;0.70;78.54;98712.63;5237387;27;20004;-75
2024/04/22 04:42:18;;;;;;;13.32;10.57;;;;;;;0.52;78.82;98683.69;5237213;27;20019;-75
2024/04/22 04:44:44;;;;;;;9.85;8.85;;;;;;;0.76;79.32;98711.94;5243134;27;20377;-74
2024/04/22 04:47:09;;;;;;;11.95;10.57;;;;;;;0.70;79.23;98702.03;5205041;27;20083;-73
2024/04/22 04:49:34;;;;;;;11.32;10.23;;;;;;;0.81;78.88;98714.09;5216235;27;20481;-76
2024/04/22 04:52:00;;;;;;;12.25;11.05;;;;;;;0.70;78.70;98696.72;5227941;27;20003;-75
2024/04/22 04:54:25;;;;;;;13.80;11.43;;;;;;;0.83;79.20;98712.91;5204276;27;20007;-75
2024/04/22 04:56:50;;;;;;;16.95;15.18;;;;;;;0.77;78.79;98702.97;5242515;27;20003;-77
2024/04/22 04:59:16;;;;;;;14.60;13.10;;;;;;;0.73;79.08;98696.38;5228652;27;20002;-76
2024/04/22 05:01:41;;;;;;;13.98;12.25;;;;;;;0.78;79.15;98709.13;5243098;27;19999;-78
2024/04/22 05:04:07;;;;;;;14.00;12.50;;;;;;;0.74;79.08;98698.03;5243397;27;20081;-79
2024/04/22 05:06:32;;;;;;;12.13;10.90;;;;;;;0.86;79.33;98709.09;5197156;27;20004;-77
2024/04/22 05:08:57;;;;;;;13.38;11.77;;;;;;;0.81;79.58;98698.19;5229997;27;20003;-76
2024/04/22 05:11:24;;;;;;;11.02;9.65;;;;;;;0.84;79.51;98703.94;5243595;27;20018;-76
2024/04/22 05:13:49;;;;;;;14.20;12.38;;;;;;;0.87;79.90;98716.88;5241587;27;20007;-76
2024/04/22 05:16:15;;;;;;;13.85;11.82;;;;;;;0.84;79.39;98684.59;5246174;27;19999;-76
2024/04/22 05:18:40;;;;;;;20.20;17.02;;;;;;;0.96;79.53;98697.28;5241520;27;20019;-75
2024/04/22 05:21:05;;;;;;;20.55;18.35;;;;;;;1.01;79.59;98692.31;5240448;27;20035;-75
2024/04/22 05:23:31;;;;;;;13.27;11.65;;;;;;;1.08;79.81;98701.22;5220782;27;20021;-76
2024/04/22 05:25:57;;;;;;;12.75;11.55;;;;;;;1.07;79.91;98699.59;5243930;27;20018;-75
2024/04/22 05:28:24;;;;;;;13.75;11.70;;;;;;;0.99;80.82;98701.44;5204012;27;20082;-75
2024/04/22 05:30:49;;;;;;;14.32;11.50;;;;;;;1.12;81.01;98713.13;5242050;27;20494;-76
2024/04/22 05:36:17;;;;;;;15.75;13.80;;;;;;;1.28;80.92;98702.44;5233489;27;20035;-76
2024/04/22 05:38:43;;;;;;;16.50;13.50;;;;;;;1.46;80.67;98710.16;5239068;27;20054;-76
2024/04/22 05:41:08;;;;;;;12.20;10.98;;;;;;;1.62;80.56;98722.50;5236947;27;20006;-75
2024/04/22 05:43:34;;;;;;;14.75;13.15;;;;;;;1.71;80.92;98718.81;5241927;27;20003;-74
2024/04/22 05:46:00;;;;;;;13.90;12.45;;;;;;;1.49;80.85;98683.28;5209511;27;20011;-76
2024/04/22 05:48:25;;;;;;;12.88;11.68;;;;;;;1.61;80.88;98675.75;5245249;27;20083;-75
2024/04/22 05:50:50;;;;;;;14.18;12.77;;;;;;;1.93;80.79;98718.00;5241547;27;20002;-71
2024/04/22 05:53:16;;;;;;;13.52;12.32;;;;;;;1.93;80.38;98699.41;5240879;27;20366;-72
2024/04/22 05:55:41;;;;;;;13.65;12.20;;;;;;;1.99;80.07;98706.66;5243806;27;19995;-76
2024/04/22 05:58:06;;;;;;;13.98;11.95;;;;;;;2.13;80.42;98724.47;5213791;27;20479;-75
2024/04/22 06:00:32;;;;;;;12.07;10.88;;;;;;;2.29;79.91;98712.91;5211728;27;20014;-75
2024/04/22 06:02:57;;;;;;;12.00;10.80;;;;;;;2.35;80.25;98701.56;5239620;27;20010;-75
2024/04/22 06:05:23;;;;;;;11.52;10.50;;;;;;;2.36;79.84;98682.75;5241182;27;20475;-75
2024/04/22 06:07:48;;;;;;;17.48;11.13;;;;;;;2.66;79.60;98712.91;5200137;27;19999;-75
2024/04/22 06:10:13;;;;;;;11.40;10.38;;;;;;;2.68;79.57;98703.69;5213967;27;20013;-78
2024/04/22 06:12:39;;;;;;;11.88;10.68;;;;;;;2.67;79.35;98675.47;5186055;27;19999;-76
2024/04/22 06:15:05;;;;;;;10.48;9.48;;;;;;;2.94;79.26;98700.59;5185235;27;20010;-76
2024/04/22 06:17:30;;;;;;;12.85;9.57;;;;;;;3.04;78.89;98702.97;5243702;27;20018;-77
2024/04/22 06:19:55;;;;;;;10.93;9.82;;;;;;;3.01;78.56;98692.72;5252580;27;20007;-76
2024/04/22 06:22:21;;;;;;;11.23;9.80;;;;;;;2.95;78.48;98666.84;5224617;27;20015;-76
2024/04/22 06:24:48;;;;;;;11.10;9.88;;;;;;;3.23;78.41;98694.44;5226709;27;20078;-76
2024/04/22 06:27:13;;;;;;;11.27;10.15;;;;;;;3.23;77.97;98678.47;5206857;27;20014;-76
2024/04/22 06:29:38;;;;;;;11.43;10.30;;;;;;;3.37;77.94;98698.91;5241124;27;20014;-76
2024/04/22 06:32:04;;;;;;;11.60;10.48;;;;;;;3.40;77.15;98672.75;5212845;27;20011;-76
2024/04/22 06:34:29;;;;;;;12.63;11.38;;;;;;;3.45;77.49;98680.19;5182069;27;20008;-76
2024/04/22 06:36:55;;;;;;;12.73;10.63;;;;;;;3.44;77.42;98667.88;5213097;27;20107;-76
2024/04/22 06:39:21;;;;;;;12.27;10.65;;;;;;;3.72;76.82;98687.44;5249523;27;20011;-76
2024/04/22 06:41:46;;;;;;;12.32;11.02;;;;;;;3.72;76.67;98670.63;5242595;27;20022;-76
2024/04/22 06:44:11;;;;;;;11.77;10.63;;;;;;;3.85;76.58;98676.91;5185061;27;20376;-76
2024/04/22 06:46:37;;;;;;;14.23;10.80;;;;;;;4.03;76.25;98690.63;5198782;27;20018;-76
2024/04/22 06:49:03;;;;;;;11.80;10.65;;;;;;;3.99;76.60;98670.69;5240971;27;20014;-77
2024/04/22 06:51:28;;;;;;;11.68;10.50;;;;;;;4.25;76.06;98687.97;5226685;27;20017;-77
2024/04/22 06:53:54;;;;;;;12.63;11.43;;;;;;;4.21;76.11;98682.19;5212194;27;20038;-76
2024/04/22 06:56:19;;;;;;;11.57;10.40;;;;;;;4.22;75.81;98673.19;5236853;27;20432;-76
2024/04/22 06:58:44;;;;;;;11.73;10.45;;;;;;;4.42;75.60;98698.16;5207922;27;20007;-76
2024/04/22 07:01:11;;;;;;;12.55;10.50;;;;;;;4.54;75.06;98683.28;5233049;27;20019;-76
2024/04/22 07:03:36;;;;;;;11.73;10.52;;;;;;;4.56;74.72;98691.06;5239390;27;20043;-76
2024/04/22 07:06:02;;;;;;;13.90;9.90;;;;;;;4.60;73.75;98682.47;5194975;27;20420;-76
2024/04/22 07:08:27;;;;;;;11.73;10.20;;;;;;;4.69;73.42;98675.97;5242447;27;20003;-77
2024/04/22 07:10:53;;;;;;;12.20;10.43;;;;;;;4.81;73.23;98677.09;5181531;27;20014;-76
2024/04/22 07:13:18;;;;;;;12.57;10.38;;;;;;;4.87;73.01;98683.50;5239519;27;19999;-76
2024/04/22 07:15:44;;;;;;;11.13;9.93;;;;;;;4.96;72.44;98692.97;5242652;27;20006;-76
2024/04/22 07:18:09;;;;;;;11.20;9.23;;;;;;;4.84;71.71;98651.84;5240678;27;20074;-77
2024/04/22 07:20:36;;;;;;;10.13;8.73;;;;;;;4.75;71.25;98626.34;5226147;27;20013;-76
2024/04/22 07:23:01;;;;;;;10.60;9.55;;;;;;;5.04;71.08;98666.13;5184323;27;20014;-76
2024/04/22 07:25:26;;;;;;;9.63;8.63;;;;;;;5.07;70.46;98678.25;5226654;27;20002;-76
2024/04/22 07:27:52;;;;;;;8.77;7.97;;;;;;;5.05;69.32;98654.44;5212476;27;20411;-76
2024/04/22 07:30:20;;;;;;;9.75;8.02;;;;;;;5.21;68.76;98675.44;5242041;27;20089;-77
2024/04/22 07:32:47;;;;;;;9.95;8.55;;;;;;;5.36;69.00;98680.66;5211898;27;20015;-76
2024/04/22 07:35:13;;;;;;;8.98;8.18;;;;;;;5.56;68.24;98685.03;5234763;27;20368;-76
2024/04/22 07:37:45;;;;;;;9.00;8.20;;;;;;;5.47;68.17;98675.56;5218076;27;19999;-76
2024/04/22 07:40:15;;;;;;;9.40;8.10;;;;;;;5.58;67.42;98677.66;5205574;27;20872;-76
2024/04/22 07:42:41;;;;;;;10.68;8.77;;;;;;;5.51;68.05;98644.75;5250732;27;20011;-76
2024/04/22 07:45:07;;;;;;;9.82;8.85;;;;;;;5.87;67.86;98683.72;5216057;27;20007;-76
2024/04/22 07:47:32;;;;;;;9.80;8.85;;;;;;;5.61;67.00;98633.69;5243990;27;20585;-76
2024/04/22 07:49:58;;;;;;;8.43;7.60;;;;;;;5.74;67.55;98664.97;5214608;27;20003;-76
2024/04/22 07:52:23;;;;;;;7.40;6.70;;;;;;;5.98;66.61;98683.13;5215124;27;20015;-76
2024/04/22 07:54:49;;;;;;;7.13;6.43;;;;;;;6.10;64.74;98692.19;5218766;27;20003;-76
2024/04/22 07:57:15;;;;;;;7.25;6.55;;;;;;;5.99;64.42;98650.03;5239593;27;20007;-76
2024/04/22 07:59:41;;;;;;;5.85;5.30;;;;;;;6.25;62.88;98666.91;5214135;27;20007;-75
2024/04/22 08:02:07;;;;;;;6.97;6.28;;;;;;;6.24;62.07;98677.81;5187720;27;20074;-76
2024/04/22 08:04:33;;;;;;;8.93;7.55;;;;;;;6.38;64.15;98674.13;5213962;27;20014;-76
2024/04/22 08:07:00;;;;;;;9.57;8.68;;;;;;;6.37;64.58;98671.66;5208253;27;20022;-76
2024/04/22 08:09:26;;;;;;;11.38;9.68;;;;;;;6.22;66.14;98671.84;5242192;27;20014;-76
2024/04/22 08:11:53;;;;;;;10.23;9.02;;;;;;;6.08;66.26;98651.47;5225110;27;20003;-77
2024/04/22 08:14:19;;;;;;;11.18;10.07;;;;;;;6.31;66.46;98670.63;5251771;27;20003;-76
2024/04/22 08:16:44;;;;;;;11.05;9.82;;;;;;;6.31;66.79;98673.28;5232167;27;20086;-76
2024/04/22 08:19:59;;;;;;;10.23;9.23;;;;;;;6.62;66.47;98700.25;5214223;27;20003;-76
2024/04/22 08:22:49;;;;;;;11.02;9.27;;;;;;;6.69;65.97;98687.69;5241540;27;20051;-76
2024/04/22 08:25:15;;;;;;;9.20;8.30;;;;;;;6.74;64.90;98703.94;5247357;27;20022;-76
2024/04/22 08:27:40;;;;;;;9.07;8.15;;;;;;;6.56;64.78;98668.94;5244184;27;20014;-76
2024/04/22 08:30:07;;;;;;;8.57;7.43;;;;;;;6.70;62.78;98700.03;5209405;27;20015;-76
2024/04/22 08:32:32;;;;;;;9.02;8.13;;;;;;;6.54;63.97;98694.25;5239028;27;20011;-76
2024/04/22 08:34:58;;;;;;;8.00;7.22;;;;;;;6.62;63.46;98702.94;5222575;27;20109;-77
2024/04/22 08:37:23;;;;;;;8.77;7.72;;;;;;;6.53;62.84;98677.41;5216337;27;20015;-76
2024/04/22 08:39:49;;;;;;;7.95;7.15;;;;;;;6.56;63.79;98693.03;5233517;27;20270;-76
2024/04/22 08:42:14;;;;;;;7.97;7.18;;;;;;;6.69;62.44;98689.53;5209907;27;20008;-77
2024/04/22 08:44:40;;;;;;;7.28;6.57;;;;;;;6.39;61.72;98675.78;5211405;27;19999;-76
2024/04/22 08:47:06;;;;;;;6.95;6.30;;;;;;;6.56;61.36;98698.38;5233783;27;20011;-76
2024/04/22 08:49:32;;;;;;;7.32;6.47;;;;;;;6.47;61.22;98683.56;5239387;27;20018;-75
2024/04/22 08:51:58;;;;;;;7.15;6.35;;;;;;;6.68;61.58;98690.56;5208936;27;20003;-77
2024/04/22 08:54:26;;;;;;;8.45;6.88;;;;;;;6.98;61.33;98695.25;5218370;27;20080;-77
2024/04/22 08:56:55;;;;;;;8.95;6.30;;;;;;;7.08;59.60;98691.31;5238528;27;20007;-76
2024/04/22 08:59:20;;;;;;;7.10;6.43;;;;;;;7.00;60.09;98662.09;5236107;27;20015;-76
2024/04/22 09:01:46;;;;;;;8.55;6.80;;;;;;;6.93;60.29;98662.91;5232803;27;20085;-76
2024/04/22 09:04:11;;;;;;;7.10;6.40;;;;;;;7.14;59.34;98679.78;5228063;27;20004;-76
2024/04/22 09:06:37;;;;;;;8.77;6.63;;;;;;;7.10;59.64;98662.47;5200551;27;20015;-76
2024/04/22 09:09:05;;;;;;;6.65;5.97;;;;;;;7.29;58.61;98672.28;5209107;27;20003;-76
2024/04/22 09:11:31;;;;;;;6.90;6.30;;;;;;;7.51;58.71;98684.38;5212924;27;20087;-77
2024/04/22 09:14:00;;;;;;;6.53;5.82;;;;;;;7.61;58.14;98688.22;5241223;27;20019;-76
2024/04/22 09:16:25;;;;;;;8.27;6.70;;;;;;;7.31;58.73;98665.69;5241681;27;20364;-76
2024/04/22 09:18:51;;;;;;;9.27;7.22;;;;;;;7.38;59.37;98687.09;5195705;27;20015;-77
2024/04/22 09:21:16;;;;;;;7.15;6.38;;;;;;;7.44;58.43;98671.03;5235890;27;20007;-76
2024/04/22 09:23:42;;;;;;;7.63;6.93;;;;;;;7.09;58.32;98628.69;5240312;27;20018;-76
2024/04/22 09:26:07;;;;;;;7.18;6.50;;;;;;;7.35;58.29;98692.91;5255449;27;20007;-77
2024/04/22 09:28:34;;;;;;;8.90;6.60;;;;;;;7.42;58.29;98685.66;5213824;27;20380;-77
2024/04/22 09:31:00;;;;;;;7.28;6.57;;;;;;;7.56;58.41;98685.38;5241489;27;20003;-76
2024/04/22 09:33:27;;;;;;;7.88;6.43;;;;;;;7.69;58.07;98684.50;5212786;27;20019;-77
2024/04/22 09:35:53;;;;;;;7.18;6.47;;;;;;;7.49;58.42;98635.53;5241865;27;20014;-77
2024/04/22 09:38:20;;;;;;;6.47;5.88;;;;;;;7.73;57.32;98680.34;5236072;27;20014;-76
2024/04/22 09:40:47;;;;;;;7.47;5.95;;;;;;;7.69;56.67;98668.41;5199022;27;20011;-76
2024/04/22 09:43:13;;;;;;;6.63;6.00;;;;;;;7.69;56.50;98663.06;5212370;27;20498;-77
2024/04/22 09:45:39;;;;;;;6.70;6.00;;;;;;;7.82;56.99;98667.53;5244951;21;20008;-74
2024/04/22 09:48:05;;;;;;;7.03;6.32;;;;;;;7.66;57.14;98652.75;5159133;27;20033;-74
2024/04/22 09:50:32;;;;;;;8.00;7.20;;;;;;;7.84;57.33;98682.34;5175590;27;20018;-74
2024/04/22 09:52:59;;;;;;;7.32;6.20;;;;;;;7.82;57.48;98671.00;5170215;27;19996;-74
2024/04/22 09:55:24;;;;;;;7.03;6.40;;;;;;;7.68;57.53;98665.97;5207960;27;20014;-75
2024/04/22 09:57:53;;;;;;;8.40;7.07;;;;;;;7.65;58.65;98676.03;5182604;27;20000;-74
2024/04/22 10:00:18;;;;;;;8.93;7.60;;;;;;;7.58;58.67;98671.78;5249323;27;20315;-74
2024/04/22 10:02:44;;;;;;;8.20;7.40;;;;;;;7.41;58.70;98674.13;5217899;27;20347;-73
2024/04/22 10:05:11;;;;;;;8.57;7.68;;;;;;;7.45;59.39;98683.38;5207605;27;20004;-74
2024/04/22 10:07:39;;;;;;;8.25;7.45;;;;;;;7.47;59.21;98686.66;5243248;27;20008;-74
2024/04/22 10:10:08;;;;;;;8.20;7.40;;;;;;;7.47;59.32;98688.50;5208434;27;20000;-74
2024/04/22 10:12:34;;;;;;;8.48;7.25;;;;;;;7.39;58.64;98699.47;5208124;27;20470;-74
2024/04/22 10:15:06;;;;;;;8.00;6.50;;;;;;;7.38;58.48;98692.44;5207569;27;20083;-74
2024/04/22 10:17:33;;;;;;;7.63;6.88;;;;;;;7.39;58.89;98683.41;5209394;27;20007;-74
2024/04/22 10:20:01;;;;;;;8.30;7.50;;;;;;;7.50;57.91;98690.75;5207423;27;20086;-74
2024/04/22 10:22:32;;;;;;;9.63;7.82;;;;;;;7.50;58.16;98680.88;5197039;27;20347;-74
2024/04/22 10:24:58;;;;;;;7.60;6.90;;;;;;;7.51;57.96;98665.63;5207258;27;20008;-75
2024/04/22 10:27:23;;;;;;;7.97;7.18;;;;;;;7.60;58.69;98656.31;5193220;27;20018;-75
2024/04/22 10:29:49;;;;;;;8.32;7.32;;;;;;;7.75;58.88;98667.53;5180231;27;20007;-74
2024/04/22 10:32:15;;;;;;;8.13;7.32;;;;;;;7.94;58.38;98677.34;5179723;27;20460;-74
2024/04/22 10:34:44;;;;;;;7.65;6.95;;;;;;;7.90;58.11;98657.34;5190567;27;20406;-74
2024/04/22 10:37:10;;;;;;;8.48;6.80;;;;;;;8.03;57.22;98668.00;5207964;27;20380;-74
2024/04/22 10:39:36;;;;;;;8.05;7.30;;;;;;;7.98;57.34;98658.97;5207842;27;20023;-74
2024/04/22 10:42:01;;;;;;;9.52;8.25;;;;;;;7.97;56.99;98655.47;5202557;27;20019;-74
2024/04/22 10:44:27;;;;;;;10.40;8.13;;;;;;;8.05;57.03;98657.06;5171358;27;20424;-74
2024/04/22 10:46:52;;;;;;;8.63;7.45;;;;;;;8.09;56.44;98664.47;5235238;27;20007;-74
2024/04/22 10:49:18;;;;;;;8.95;6.78;;;;;;;8.13;56.84;98657.63;5207460;27;20087;-74
2024/04/22 10:51:43;;;;;;;7.43;6.68;;;;;;;8.19;56.67;98659.41;5207561;27;20023;-74
2024/04/22 10:54:09;;;;;;;6.57;5.85;;;;;;;8.20;56.15;98649.50;5209765;27;20014;-75
2024/04/22 10:56:34;;;;;;;10.18;7.13;;;;;;;8.32;56.38;98651.31;5207199;27;20015;-74
2024/04/22 10:58:59;;;;;;;6.10;5.60;;;;;;;8.14;54.50;98645.84;5235019;27;20015;-74
2024/04/22 11:01:26;;;;;;;6.90;6.25;;;;;;;8.31;54.80;98646.97;5234939;27;20004;-74
2024/04/22 11:03:54;;;;;;;6.50;5.70;;;;;;;8.40;54.11;98644.03;5234000;27;20000;-74
2024/04/22 11:06:19;;;;;;;6.72;6.13;;;;;;;8.44;53.54;98640.69;5206264;27;20020;-75
2024/04/22 11:08:45;;;;;;;6.05;5.45;;;;;;;8.30;53.34;98639.97;5206049;27;20456;-75
2024/04/22 11:11:12;;;;;;;5.75;5.10;;;;;;;8.55;53.42;98644.50;5204524;27;20159;-75
2024/04/22 11:13:39;;;;;;;5.60;5.10;;;;;;;8.73;53.96;98647.22;5203026;27;20031;-74
2024/04/22 11:16:15;;;;;;;7.50;4.90;;;;;;;8.71;53.37;98625.13;5164691;27;20020;-74
2024/04/22 11:18:41;;;;;;;6.25;5.47;;;;;;;9.02;53.38;98633.09;5207877;27;20144;-75
2024/04/22 11:21:06;;;;;;;5.80;5.20;;;;;;;9.29;52.29;98645.16;5206775;27;20003;-75
2024/04/22 11:23:32;;;;;;;5.47;4.97;;;;;;;9.34;51.98;98639.94;5181278;27;20008;-74
2024/04/22 11:25:59;;;;;;;7.57;5.45;;;;;;;9.26;51.08;98626.00;5179751;27;20003;-75
2024/04/22 11:28:24;;;;;;;7.50;6.25;;;;;;;9.46;51.81;98640.00;5206553;27;20004;-75
2024/04/22 11:30:49;;;;;;;5.80;5.15;;;;;;;9.74;51.32;98627.63;5204415;27;20031;-75
2024/04/22 11:33:15;;;;;;;6.00;4.95;;;;;;;9.98;49.64;98638.47;5215204;27;20079;-75
2024/04/22 11:35:41;;;;;;;5.60;5.10;;;;;;;10.30;50.10;98626.38;5203493;27;20022;-75
2024/04/22 11:38:15;;;;;;;7.70;5.57;;;;;;;10.78;49.82;98632.38;5207237;27;20023;-75